sensor_id;sensor_type;location;lat;lon;timestamp;pressure;altitude;pressure_sealevel;temperature;humidity
35694;BME280;21812;55.536;37.664;2023-02-26T00:01:15;97355.78;;;11.69;54.01
35694;BME280;21812;55.536;37.664;2023-02-26T00:03:42;97386.41;;;11.89;55.92
35694;BME280;21812;55.536;37.664;2023-02-26T00:06:07;97377.38;;;11.90;55.04
35694;BME280;21812;55.536;37.664;2023-02-26T00:08:34;97372.38;;;12.04;56.55
35694;BME280;21812;55.536;37.664;2023-02-26T00:11:00;97365.38;;;12.40;57.02
35694;BME280;21812;55.536;37.664;2023-02-26T00:13:28;97352.38;;;12.59;55.15
35694;BME280;21812;55.536;37.664;2023-02-26T00:15:58;97350.13;;;12.41;53.72
35694;BME280;21812;55.536;37.664;2023-02-26T00:18:24;97340.75;;;11.96;51.43
35694;BME280;21812;55.536;37.664;2023-02-26T00:20:50;97336.63;;;11.83;55.54
35694;BME280;21812;55.536;37.664;2023-02-26T00:23:16;97319.81;;;11.55;55.15
35694;BME280;21812;55.536;37.664;2023-02-26T00:25:43;97322.28;;;11.62;54.96
35694;BME280;21812;55.536;37.664;2023-02-26T00:28:10;97316.44;;;11.65;54.73
35694;BME280;21812;55.536;37.664;2023-02-26T00:30:36;97301.38;;;11.53;55.98
35694;BME280;21812;55.536;37.664;2023-02-26T00:33:03;97281.41;;;11.66;57.36
35694;BME280;21812;55.536;37.664;2023-02-26T00:35:30;97268.81;;;11.94;56.72
35694;BME280;21812;55.536;37.664;2023-02-26T00:38:15;97248.22;;;11.95;51.81
35694;BME280;21812;55.536;37.664;2023-02-26T00:40:46;97268.31;;;12.02;53.43
35694;BME280;21812;55.536;37.664;2023-02-26T00:43:17;97238.06;;;11.59;52.21
35694;BME280;21812;55.536;37.664;2023-02-26T00:46:14;97254.94;;;11.65;55.27
35694;BME280;21812;55.536;37.664;2023-02-26T00:53:48;97244.50;;;11.58;53.28
35694;BME280;21812;55.536;37.664;2023-02-26T00:56:16;97270.75;;;11.34;54.54
35694;BME280;21812;55.536;37.664;2023-02-26T00:58:43;97269.94;;;10.74;51.98
35694;BME280;21812;55.536;37.664;2023-02-26T01:01:09;97274.75;;;10.77;56.35
35694;BME280;21812;55.536;37.664;2023-02-26T01:03:35;97259.44;;;10.94;53.62
35694;BME280;21812;55.536;37.664;2023-02-26T01:06:01;97261.53;;;10.87;54.75
35694;BME280;21812;55.536;37.664;2023-02-26T01:08:32;97239.41;;;10.92;55.77
35694;BME280;21812;55.536;37.664;2023-02-26T01:11:00;97261.22;;;11.11;53.66
35694;BME280;21812;55.536;37.664;2023-02-26T01:13:26;97255.72;;;10.95;53.97
35694;BME280;21812;55.536;37.664;2023-02-26T01:16:03;97241.81;;;10.93;54.84
35694;BME280;21812;55.536;37.664;2023-02-26T01:18:52;97252.41;;;11.10;53.30
35694;BME280;21812;55.536;37.664;2023-02-26T01:21:29;97239.16;;;10.93;53.67
35694;BME280;21812;55.536;37.664;2023-02-26T01:23:55;97236.25;;;11.00;55.55
35694;BME280;21812;55.536;37.664;2023-02-26T01:26:24;97228.47;;;11.26;54.39
35694;BME280;21812;55.536;37.664;2023-02-26T01:28:52;97225.56;;;11.27;53.34
35694;BME280;21812;55.536;37.664;2023-02-26T01:32:00;97220.53;;;11.31;54.32
35694;BME280;21812;55.536;37.664;2023-02-26T01:34:38;97197.53;;;10.98;52.49
35694;BME280;21812;55.536;37.664;2023-02-26T01:42:43;97188.91;;;10.90;55.63
35694;BME280;21812;55.536;37.664;2023-02-26T01:45:16;97177.63;;;10.83;52.41
35694;BME280;21812;55.536;37.664;2023-02-26T01:50:24;97197.53;;;10.43;53.82
35694;BME280;21812;55.536;37.664;2023-02-26T01:55:28;97183.66;;;10.19;54.84
35694;BME280;21812;55.536;37.664;2023-02-26T01:57:56;97163.44;;;10.45;56.68
35694;BME280;21812;55.536;37.664;2023-02-26T02:00:24;97180.53;;;10.76;52.47
35694;BME280;21812;55.536;37.664;2023-02-26T02:02:52;97170.13;;;10.48;52.96
35694;BME280;21812;55.536;37.664;2023-02-26T02:05:26;97175.53;;;10.31;54.00
35694;BME280;21812;55.536;37.664;2023-02-26T02:07:53;97177.63;;;10.29;55.55
35694;BME280;21812;55.536;37.664;2023-02-26T02:10:18;97178.50;;;9.68;53.42
35694;BME280;21812;55.536;37.664;2023-02-26T02:13:04;97190.94;;;9.63;53.63
35694;BME280;21812;55.536;37.664;2023-02-26T02:16:36;97176.38;;;10.14;58.92
35694;BME280;21812;55.536;37.664;2023-02-26T02:25:28;97181.19;;;10.62;55.58
35694;BME280;21812;55.536;37.664;2023-02-26T02:33:17;97164.22;;;10.46;56.05
35694;BME280;21812;55.536;37.664;2023-02-26T02:35:58;97153.69;;;10.61;52.25
35694;BME280;21812;55.536;37.664;2023-02-26T02:38:34;97158.75;;;10.57;55.00
35694;BME280;21812;55.536;37.664;2023-02-26T02:41:09;97146.97;;;10.53;55.14
35694;BME280;21812;55.536;37.664;2023-02-26T02:43:38;97152.28;;;10.81;55.09
35694;BME280;21812;55.536;37.664;2023-02-26T02:46:10;97143.16;;;10.76;51.63
35694;BME280;21812;55.536;37.664;2023-02-26T02:48:37;97146.84;;;10.43;51.52
35694;BME280;21812;55.536;37.664;2023-02-26T02:51:11;97141.00;;;9.75;52.46
35694;BME280;21812;55.536;37.664;2023-02-26T02:53:43;97137.22;;;9.93;56.76
35694;BME280;21812;55.536;37.664;2023-02-26T02:56:19;97145.25;;;10.42;55.55
35694;BME280;21812;55.536;37.664;2023-02-26T02:58:50;97084.13;;;9.64;53.02
35694;BME280;21812;55.536;37.664;2023-02-26T03:01:18;97130.56;;;9.51;55.61
35694;BME280;21812;55.536;37.664;2023-02-26T03:06:21;97135.94;;;9.34;55.27
35694;BME280;21812;55.536;37.664;2023-02-26T03:08:49;97122.59;;;9.73;58.18
35694;BME280;21812;55.536;37.664;2023-02-26T03:11:15;97128.97;;;9.72;57.10
35694;BME280;21812;55.536;37.664;2023-02-26T03:13:42;97133.06;;;9.19;55.64
35694;BME280;21812;55.536;37.664;2023-02-26T03:21:43;97123.91;;;9.32;54.98
35694;BME280;21812;55.536;37.664;2023-02-26T03:26:51;97123.53;;;9.23;53.51
35694;BME280;21812;55.536;37.664;2023-02-26T03:32:18;97139.69;;;8.99;54.64
35694;BME280;21812;55.536;37.664;2023-02-26T03:34:57;97141.88;;;8.69;54.50
35694;BME280;21812;55.536;37.664;2023-02-26T03:37:35;97145.97;;;8.59;56.25
35694;BME280;21812;55.536;37.664;2023-02-26T03:40:08;97152.66;;;8.79;58.16
35694;BME280;21812;55.536;37.664;2023-02-26T03:42:43;97145.72;;;8.61;56.26
35694;BME280;21812;55.536;37.664;2023-02-26T03:45:14;97150.34;;;8.99;59.99
35694;BME280;21812;55.536;37.664;2023-02-26T03:47:45;97156.09;;;8.46;57.21
35694;BME280;21812;55.536;37.664;2023-02-26T03:50:18;97157.44;;;8.19;57.77
35694;BME280;21812;55.536;37.664;2023-02-26T03:52:52;97151.56;;;8.17;57.40
35694;BME280;21812;55.536;37.664;2023-02-26T03:55:52;97155.22;;;8.28;60.05
35694;BME280;21812;55.536;37.664;2023-02-26T03:58:28;97171.31;;;8.21;58.58
35694;BME280;21812;55.536;37.664;2023-02-26T04:01:28;97148.75;;;7.19;56.38
35694;BME280;21812;55.536;37.664;2023-02-26T04:04:06;97183.72;;;7.04;59.25
35694;BME280;21812;55.536;37.664;2023-02-26T04:06:35;97195.94;;;7.05;61.30
35694;BME280;21812;55.536;37.664;2023-02-26T04:09:02;97196.84;;;6.99;59.54
35694;BME280;21812;55.536;37.664;2023-02-26T04:11:30;97205.47;;;6.95;60.38
35694;BME280;21812;55.536;37.664;2023-02-26T04:13:57;97198.94;;;6.97;60.86
35694;BME280;21812;55.536;37.664;2023-02-26T04:16:22;97209.22;;;6.63;62.22
35694;BME280;21812;55.536;37.664;2023-02-26T04:18:49;97207.72;;;6.68;62.00
35694;BME280;21812;55.536;37.664;2023-02-26T04:21:19;97205.56;;;6.64;62.72
35694;BME280;21812;55.536;37.664;2023-02-26T04:23:46;97216.97;;;6.35;63.31
35694;BME280;21812;55.536;37.664;2023-02-26T04:26:12;97228.38;;;6.65;63.54
35694;BME280;21812;55.536;37.664;2023-02-26T04:28:39;97221.28;;;6.78;61.67
35694;BME280;21812;55.536;37.664;2023-02-26T04:31:06;97228.38;;;6.65;63.52
35694;BME280;21812;55.536;37.664;2023-02-26T04:33:32;97241.28;;;6.43;63.16
35694;BME280;21812;55.536;37.664;2023-02-26T04:35:59;97248.13;;;6.81;62.90
35694;BME280;21812;55.536;37.664;2023-02-26T04:38:26;97246.72;;;7.21;62.14
35694;BME280;21812;55.536;37.664;2023-02-26T04:40:52;97257.75;;;6.94;59.36
35694;BME280;21812;55.536;37.664;2023-02-26T04:43:18;97260.25;;;6.89;61.46
35694;BME280;21812;55.536;37.664;2023-02-26T04:45:58;97250.69;;;6.09;61.58
35694;BME280;21812;55.536;37.664;2023-02-26T04:48:25;97263.06;;;5.97;63.82
35694;BME280;21812;55.536;37.664;2023-02-26T04:50:50;97269.53;;;6.01;66.10
35694;BME280;21812;55.536;37.664;2023-02-26T04:53:16;97278.34;;;6.50;69.31
35694;BME280;21812;55.536;37.664;2023-02-26T04:55:42;97289.69;;;6.20;63.06
35694;BME280;21812;55.536;37.664;2023-02-26T04:58:07;97288.34;;;5.93;63.94
35694;BME280;21812;55.536;37.664;2023-02-26T05:00:35;97299.81;;;5.86;64.87
35694;BME280;21812;55.536;37.664;2023-02-26T05:03:02;97294.22;;;5.26;64.09
35694;BME280;21812;55.536;37.664;2023-02-26T05:05:27;97298.06;;;5.55;68.47
35694;BME280;21812;55.536;37.664;2023-02-26T05:07:53;97313.91;;;5.80;65.97
35694;BME280;21812;55.536;37.664;2023-02-26T05:10:21;97319.97;;;5.87;65.09
35694;BME280;21812;55.536;37.664;2023-02-26T05:12:47;97313.91;;;5.80;64.96
35694;BME280;21812;55.536;37.664;2023-02-26T05:15:13;97330.25;;;5.77;64.58
35694;BME280;21812;55.536;37.664;2023-02-26T05:17:42;97335.09;;;5.62;63.96
35694;BME280;21812;55.536;37.664;2023-02-26T05:20:08;97326.22;;;5.18;63.86
35694;BME280;21812;55.536;37.664;2023-02-26T05:22:36;97345.22;;;5.08;65.64
35694;BME280;21812;55.536;37.664;2023-02-26T05:25:02;97347.47;;;4.73;67.08
35694;BME280;21812;55.536;37.664;2023-02-26T05:27:29;97361.88;;;4.70;65.30
35694;BME280;21812;55.536;37.664;2023-02-26T05:29:55;97338.44;;;4.42;66.84
35694;BME280;21812;55.536;37.664;2023-02-26T05:32:21;97367.31;;;4.30;66.78
35694;BME280;21812;55.536;37.664;2023-02-26T05:34:47;97374.44;;;4.29;67.39
35694;BME280;21812;55.536;37.664;2023-02-26T05:37:12;97355.84;;;4.56;66.46
35694;BME280;21812;55.536;37.664;2023-02-26T05:39:38;97379.69;;;4.43;68.31
35694;BME280;21812;55.536;37.664;2023-02-26T05:42:06;97390.69;;;4.26;66.92
35694;BME280;21812;55.536;37.664;2023-02-26T05:44:32;97391.47;;;4.34;67.37
35694;BME280;21812;55.536;37.664;2023-02-26T05:46:57;97382.28;;;4.56;69.62
35694;BME280;21812;55.536;37.664;2023-02-26T05:49:23;97391.75;;;4.77;67.02
35694;BME280;21812;55.536;37.664;2023-02-26T05:51:49;97400.28;;;4.86;65.46
35694;BME280;21812;55.536;37.664;2023-02-26T05:54:14;97399.94;;;4.62;64.59
35694;BME280;21812;55.536;37.664;2023-02-26T05:56:40;97400.38;;;4.59;65.07
35694;BME280;21812;55.536;37.664;2023-02-26T05:59:05;97401.94;;;4.74;66.00
35694;BME280;21812;55.536;37.664;2023-02-26T06:01:31;97416.56;;;4.83;65.75
35694;BME280;21812;55.536;37.664;2023-02-26T06:03:57;97411.34;;;4.63;64.30
35694;BME280;21812;55.536;37.664;2023-02-26T06:06:22;97421.19;;;4.22;65.52
35694;BME280;21812;55.536;37.664;2023-02-26T06:08:49;97429.31;;;4.27;66.29
35694;BME280;21812;55.536;37.664;2023-02-26T06:11:15;97422.63;;;4.25;66.26
35694;BME280;21812;55.536;37.664;2023-02-26T06:13:43;97429.13;;;4.16;65.59
35694;BME280;21812;55.536;37.664;2023-02-26T06:16:09;97424.63;;;4.29;66.91
35694;BME280;21812;55.536;37.664;2023-02-26T06:18:34;97431.91;;;4.54;65.40
35694;BME280;21812;55.536;37.664;2023-02-26T06:21:00;97422.53;;;4.65;65.14
35694;BME280;21812;55.536;37.664;2023-02-26T06:23:26;97423.38;;;5.11;65.41
35694;BME280;21812;55.536;37.664;2023-02-26T06:25:52;97426.47;;;5.01;64.15
35694;BME280;21812;55.536;37.664;2023-02-26T06:28:18;97437.84;;;4.95;65.33
35694;BME280;21812;55.536;37.664;2023-02-26T06:30:45;97442.16;;;4.96;64.46
35694;BME280;21812;55.536;37.664;2023-02-26T06:33:11;97441.75;;;4.85;64.57
35694;BME280;21812;55.536;37.664;2023-02-26T06:35:37;97444.63;;;4.84;65.14
35694;BME280;21812;55.536;37.664;2023-02-26T06:38:03;97454.81;;;4.74;64.85
35694;BME280;21812;55.536;37.664;2023-02-26T06:40:29;97458.31;;;4.54;64.70
35694;BME280;21812;55.536;37.664;2023-02-26T06:42:55;97465.22;;;4.68;65.36
35694;BME280;21812;55.536;37.664;2023-02-26T06:45:21;97467.06;;;4.55;64.59
35694;BME280;21812;55.536;37.664;2023-02-26T06:47:47;97469.25;;;4.78;65.69
35694;BME280;21812;55.536;37.664;2023-02-26T06:50:13;97483.25;;;4.85;65.50
35694;BME280;21812;55.536;37.664;2023-02-26T06:52:39;97484.28;;;5.36;64.01
35694;BME280;21812;55.536;37.664;2023-02-26T06:55:05;97487.59;;;5.24;63.07
35694;BME280;21812;55.536;37.664;2023-02-26T06:57:30;97494.13;;;5.22;62.83
35694;BME280;21812;55.536;37.664;2023-02-26T06:59:56;97503.84;;;5.35;65.13
35694;BME280;21812;55.536;37.664;2023-02-26T07:02:22;97494.94;;;5.16;66.08
35694;BME280;21812;55.536;37.664;2023-02-26T07:04:48;97501.16;;;4.83;63.05
35694;BME280;21812;55.536;37.664;2023-02-26T07:07:14;97501.63;;;4.40;64.70
35694;BME280;21812;55.536;37.664;2023-02-26T07:09:40;97515.47;;;4.35;65.63
35694;BME280;21812;55.536;37.664;2023-02-26T07:12:06;97524.38;;;4.67;65.42
35694;BME280;21812;55.536;37.664;2023-02-26T07:14:32;97510.47;;;4.99;65.25
35694;BME280;21812;55.536;37.664;2023-02-26T07:16:59;97503.44;;;5.31;65.63
35694;BME280;21812;55.536;37.664;2023-02-26T07:19:24;97516.06;;;5.29;63.19
35694;BME280;21812;55.536;37.664;2023-02-26T07:21:50;97514.91;;;5.18;64.11
35694;BME280;21812;55.536;37.664;2023-02-26T07:24:16;97523.75;;;5.44;63.58
35694;BME280;21812;55.536;37.664;2023-02-26T07:26:41;97524.47;;;5.64;64.98
35694;BME280;21812;55.536;37.664;2023-02-26T07:29:07;97520.03;;;5.52;61.74
35694;BME280;21812;55.536;37.664;2023-02-26T07:31:33;97527.50;;;5.23;63.22
35694;BME280;21812;55.536;37.664;2023-02-26T07:33:58;97534.00;;;5.27;62.13
35694;BME280;21812;55.536;37.664;2023-02-26T07:36:24;97535.97;;;5.45;63.06
35694;BME280;21812;55.536;37.664;2023-02-26T07:38:49;97530.09;;;5.43;61.25
35694;BME280;21812;55.536;37.664;2023-02-26T07:41:15;97533.19;;;5.33;61.52
35694;BME280;21812;55.536;37.664;2023-02-26T07:43:41;97535.44;;;5.23;62.06
35694;BME280;21812;55.536;37.664;2023-02-26T07:46:07;97532.72;;;5.43;61.95
35694;BME280;21812;55.536;37.664;2023-02-26T07:48:32;97521.50;;;5.47;61.31
35694;BME280;21812;55.536;37.664;2023-02-26T07:50:58;97529.91;;;5.76;64.42
35694;BME280;21812;55.536;37.664;2023-02-26T07:53:24;97544.31;;;5.48;61.02
35694;BME280;21812;55.536;37.664;2023-02-26T07:55:49;97551.03;;;5.44;62.40
35694;BME280;21812;55.536;37.664;2023-02-26T07:58:15;97549.16;;;5.52;61.49
35694;BME280;21812;55.536;37.664;2023-02-26T08:00:40;97550.00;;;5.45;61.20
35694;BME280;21812;55.536;37.664;2023-02-26T08:03:06;97558.41;;;5.29;64.96
35694;BME280;21812;55.536;37.664;2023-02-26T08:05:32;97560.41;;;5.40;64.98
35694;BME280;21812;55.536;37.664;2023-02-26T08:07:57;97559.91;;;5.12;61.22
35694;BME280;21812;55.536;37.664;2023-02-26T08:10:23;97564.59;;;5.09;62.38
35694;BME280;21812;55.536;37.664;2023-02-26T08:12:48;97560.06;;;5.30;65.65
35694;BME280;21812;55.536;37.664;2023-02-26T08:15:14;97566.16;;;5.31;61.58
35694;BME280;21812;55.536;37.664;2023-02-26T08:17:40;97571.88;;;5.21;61.45
35694;BME280;21812;55.536;37.664;2023-02-26T08:20:07;97571.91;;;5.14;61.33
35694;BME280;21812;55.536;37.664;2023-02-26T08:22:33;97575.22;;;4.89;61.80
35694;BME280;21812;55.536;37.664;2023-02-26T08:24:59;97582.56;;;4.41;64.39
35694;BME280;21812;55.536;37.664;2023-02-26T08:27:25;97602.88;;;4.34;64.86
35694;BME280;21812;55.536;37.664;2023-02-26T08:29:53;97603.28;;;4.37;65.34
35694;BME280;21812;55.536;37.664;2023-02-26T08:32:19;97595.75;;;4.27;64.06
35694;BME280;21812;55.536;37.664;2023-02-26T08:34:47;97600.44;;;4.45;64.25
35694;BME280;21812;55.536;37.664;2023-02-26T08:37:12;97607.97;;;4.82;65.57
35694;BME280;21812;55.536;37.664;2023-02-26T08:39:38;97610.97;;;5.25;62.16
35694;BME280;21812;55.536;37.664;2023-02-26T08:42:05;97621.19;;;5.08;60.39
35694;BME280;21812;55.536;37.664;2023-02-26T08:44:31;97623.22;;;5.06;59.04
35694;BME280;21812;55.536;37.664;2023-02-26T08:46:57;97634.81;;;4.92;59.39
35694;BME280;21812;55.536;37.664;2023-02-26T08:49:23;97638.88;;;5.15;60.43
35694;BME280;21812;55.536;37.664;2023-02-26T08:51:49;97638.66;;;4.96;58.11
35694;BME280;21812;55.536;37.664;2023-02-26T08:54:14;97667.56;;;4.71;58.46
35694;BME280;21812;55.536;37.664;2023-02-26T08:56:41;97633.97;;;4.31;57.93
35694;BME280;21812;55.536;37.664;2023-02-26T08:59:07;97655.06;;;4.11;59.39
35694;BME280;21812;55.536;37.664;2023-02-26T09:01:34;97654.84;;;4.13;59.79
35694;BME280;21812;55.536;37.664;2023-02-26T09:04:00;97662.00;;;4.19;59.93
35694;BME280;21812;55.536;37.664;2023-02-26T09:06:25;97660.22;;;4.46;61.26
35694;BME280;21812;55.536;37.664;2023-02-26T09:08:51;97669.16;;;4.52;61.03
35694;BME280;21812;55.536;37.664;2023-02-26T09:11:16;97665.28;;;4.35;60.29
35694;BME280;21812;55.536;37.664;2023-02-26T09:13:42;97665.47;;;4.40;59.53
35694;BME280;21812;55.536;37.664;2023-02-26T09:16:07;97675.66;;;4.36;61.75
35694;BME280;21812;55.536;37.664;2023-02-26T09:18:33;97679.94;;;4.44;60.54
35694;BME280;21812;55.536;37.664;2023-02-26T09:20:59;97687.84;;;4.30;60.08
35694;BME280;21812;55.536;37.664;2023-02-26T09:23:28;97679.91;;;4.37;62.04
35694;BME280;21812;55.536;37.664;2023-02-26T09:25:55;97696.78;;;4.29;60.80
35694;BME280;21812;55.536;37.664;2023-02-26T09:28:23;97692.50;;;4.35;64.80
35694;BME280;21812;55.536;37.664;2023-02-26T09:30:53;97704.91;;;4.35;61.45
35694;BME280;21812;55.536;37.664;2023-02-26T09:33:20;97696.59;;;4.51;62.61
35694;BME280;21812;55.536;37.664;2023-02-26T09:35:50;97700.28;;;4.50;60.73
35694;BME280;21812;55.536;37.664;2023-02-26T09:38:16;97716.28;;;4.28;59.49
35694;BME280;21812;55.536;37.664;2023-02-26T09:41:13;97714.25;;;4.30;59.88
35694;BME280;21812;55.536;37.664;2023-02-26T09:49:04;97716.69;;;4.25;59.16
35694;BME280;21812;55.536;37.664;2023-02-26T09:51:34;97713.44;;;4.30;58.30
35694;BME280;21812;55.536;37.664;2023-02-26T09:54:13;97727.44;;;4.17;58.82
35694;BME280;21812;55.536;37.664;2023-02-26T09:56:40;97729.16;;;3.97;59.00
35694;BME280;21812;55.536;37.664;2023-02-26T09:59:08;97731.06;;;4.09;58.93
35694;BME280;21812;55.536;37.664;2023-02-26T10:01:42;97717.47;;;4.19;57.39
35694;BME280;21812;55.536;37.664;2023-02-26T10:09:20;97695.41;;;4.74;57.55
35694;BME280;21812;55.536;37.664;2023-02-26T10:12:01;97735.13;;;5.07;54.37
35694;BME280;21812;55.536;37.664;2023-02-26T10:17:21;97704.09;;;3.79;54.66
35694;BME280;21812;55.536;37.664;2023-02-26T10:19:52;97726.97;;;3.65;55.25
35694;BME280;21812;55.536;37.664;2023-02-26T10:22:26;97758.31;;;3.75;54.88
35694;BME280;21812;55.536;37.664;2023-02-26T10:25:02;97749.28;;;3.63;54.46
35694;BME280;21812;55.536;37.664;2023-02-26T10:27:41;97769.53;;;3.56;55.51
35694;BME280;21812;55.536;37.664;2023-02-26T10:35:53;97760.91;;;3.40;56.13
35694;BME280;21812;55.536;37.664;2023-02-26T10:38:23;97726.16;;;3.08;56.46
35694;BME280;21812;55.536;37.664;2023-02-26T10:40:56;97743.31;;;3.19;56.00
35694;BME280;21812;55.536;37.664;2023-02-26T10:51:45;97778.72;;;3.31;57.28
35694;BME280;21812;55.536;37.664;2023-02-26T10:54:30;97755.88;;;3.17;56.85
35694;BME280;21812;55.536;37.664;2023-02-26T10:56:57;97774.59;;;3.85;59.08
35694;BME280;21812;55.536;37.664;2023-02-26T10:59:23;97763.66;;;3.88;58.07
35694;BME280;21812;55.536;37.664;2023-02-26T11:01:50;97780.00;;;3.70;56.81
35694;BME280;21812;55.536;37.664;2023-02-26T11:04:26;97772.50;;;3.74;57.86
35694;BME280;21812;55.536;37.664;2023-02-26T11:06:59;97781.84;;;3.70;57.26
35694;BME280;21812;55.536;37.664;2023-02-26T11:09:35;97780.69;;;3.79;59.87
35694;BME280;21812;55.536;37.664;2023-02-26T11:14:41;97748.47;;;3.62;57.15
35694;BME280;21812;55.536;37.664;2023-02-26T11:19:40;97764.69;;;3.31;58.84
35694;BME280;21812;55.536;37.664;2023-02-26T11:22:07;97795.22;;;3.68;66.88
35694;BME280;21812;55.536;37.664;2023-02-26T11:24:39;97798.47;;;3.42;59.71
35694;BME280;21812;55.536;37.664;2023-02-26T11:27:13;97793.34;;;3.34;60.89
35694;BME280;21812;55.536;37.664;2023-02-26T11:29:41;97802.41;;;3.53;59.20
35694;BME280;21812;55.536;37.664;2023-02-26T11:32:19;97800.75;;;3.45;65.39
35694;BME280;21812;55.536;37.664;2023-02-26T11:34:47;97772.13;;;3.21;59.81
35694;BME280;21812;55.536;37.664;2023-02-26T11:37:18;97801.88;;;3.36;60.88
35694;BME280;21812;55.536;37.664;2023-02-26T11:39:45;97793.16;;;3.64;60.42
35694;BME280;21812;55.536;37.664;2023-02-26T11:42:11;97809.59;;;3.94;65.59
35694;BME280;21812;55.536;37.664;2023-02-26T11:44:41;97779.91;;;5.22;58.71
35694;BME280;21812;55.536;37.664;2023-02-26T11:47:20;97756.69;;;4.84;58.38
35694;BME280;21812;55.536;37.664;2023-02-26T11:49:53;97805.44;;;4.68;57.92
35694;BME280;21812;55.536;37.664;2023-02-26T11:52:27;97800.00;;;4.21;58.18
35694;BME280;21812;55.536;37.664;2023-02-26T11:54:54;97809.78;;;4.27;57.45
35694;BME280;21812;55.536;37.664;2023-02-26T11:57:27;97817.94;;;4.33;64.00
35694;BME280;21812;55.536;37.664;2023-02-26T11:59:55;97773.28;;;4.03;69.17
35694;BME280;21812;55.536;37.664;2023-02-26T12:02:24;97812.66;;;4.33;60.38
35694;BME280;21812;55.536;37.664;2023-02-26T12:04:54;97784.78;;;3.88;59.19
35694;BME280;21812;55.536;37.664;2023-02-26T12:07:22;97809.28;;;4.10;58.73
35694;BME280;21812;55.536;37.664;2023-02-26T12:09:47;97811.72;;;4.12;59.04
35694;BME280;21812;55.536;37.664;2023-02-26T12:12:39;97810.19;;;4.31;58.41
35694;BME280;21812;55.536;37.664;2023-02-26T12:15:25;97809.72;;;4.14;59.06
35694;BME280;21812;55.536;37.664;2023-02-26T12:31:40;97816.72;;;3.65;58.04
35694;BME280;21812;55.536;37.664;2023-02-26T12:37:05;97815.50;;;3.40;58.84
35694;BME280;21812;55.536;37.664;2023-02-26T12:42:56;97851.25;;;3.21;58.42
35694;BME280;21812;55.536;37.664;2023-02-26T12:53:33;97892.72;;;2.54;66.67
35694;BME280;21812;55.536;37.664;2023-02-26T13:10:05;97923.22;;;2.04;71.02
35694;BME280;21812;55.536;37.664;2023-02-26T13:12:45;97924.63;;;1.91;70.94
35694;BME280;21812;55.536;37.664;2023-02-26T13:20:25;97931.75;;;2.06;69.94
35694;BME280;21812;55.536;37.664;2023-02-26T13:22:58;97937.03;;;2.06;69.73
35694;BME280;21812;55.536;37.664;2023-02-26T13:27:58;97904.81;;;1.81;69.81
35694;BME280;21812;55.536;37.664;2023-02-26T13:30:39;97930.53;;;1.93;70.26
35694;BME280;21812;55.536;37.664;2023-02-26T13:33:15;97931.91;;;1.89;70.24
35694;BME280;21812;55.536;37.664;2023-02-26T13:35:42;97957.50;;;1.95;70.61
35694;BME280;21812;55.536;37.664;2023-02-26T13:38:15;97964.47;;;1.88;71.16
35694;BME280;21812;55.536;37.664;2023-02-26T13:43:31;97938.34;;;1.64;72.42
35694;BME280;21812;55.536;37.664;2023-02-26T13:49:08;97973.00;;;1.90;72.96
35694;BME280;21812;55.536;37.664;2023-02-26T13:51:42;97983.13;;;2.02;72.52
35694;BME280;21812;55.536;37.664;2023-02-26T14:01:55;98011.34;;;1.70;71.26
35694;BME280;21812;55.536;37.664;2023-02-26T14:07:08;97972.84;;;1.23;71.42
35694;BME280;21812;55.536;37.664;2023-02-26T14:09:43;97991.06;;;1.24;71.01
35694;BME280;21812;55.536;37.664;2023-02-26T14:12:34;98014.34;;;1.35;70.86
35694;BME280;21812;55.536;37.664;2023-02-26T14:17:40;97999.84;;;1.08;70.77
35694;BME280;21812;55.536;37.664;2023-02-26T14:20:25;97998.22;;;1.07;70.13
35694;BME280;21812;55.536;37.664;2023-02-26T14:25:36;98062.72;;;1.26;67.62
35694;BME280;21812;55.536;37.664;2023-02-26T14:31:16;98086.72;;;0.67;64.44
35694;BME280;21812;55.536;37.664;2023-02-26T14:34:01;98084.44;;;0.56;61.56
35694;BME280;21812;55.536;37.664;2023-02-26T14:37:06;98069.47;;;0.65;61.40
35694;BME280;21812;55.536;37.664;2023-02-26T14:39:37;98066.03;;;0.56;61.09
35694;BME280;21812;55.536;37.664;2023-02-26T14:42:19;98080.97;;;0.47;60.41
35694;BME280;21812;55.536;37.664;2023-02-26T14:44:53;98080.81;;;0.49;59.59
35694;BME280;21812;55.536;37.664;2023-02-26T14:47:23;98094.28;;;0.54;58.35
35694;BME280;21812;55.536;37.664;2023-02-26T14:49:49;98078.19;;;0.49;58.54
35694;BME280;21812;55.536;37.664;2023-02-26T14:55:20;98089.00;;;0.70;58.87
35694;BME280;21812;55.536;37.664;2023-02-26T15:14:19;98141.56;;;0.54;57.90
35694;BME280;21812;55.536;37.664;2023-02-26T15:19:32;98177.00;;;0.33;58.11
35694;BME280;21812;55.536;37.664;2023-02-26T15:22:34;98175.03;;;0.35;58.72
35694;BME280;21812;55.536;37.664;2023-02-26T15:25:02;98159.94;;;0.29;58.92
35694;BME280;21812;55.536;37.664;2023-02-26T15:27:31;98138.25;;;0.19;59.06
35694;BME280;21812;55.536;37.664;2023-02-26T15:29:58;98200.78;;;0.32;57.81
35694;BME280;21812;55.536;37.664;2023-02-26T15:32:28;98172.41;;;0.27;58.36
35694;BME280;21812;55.536;37.664;2023-02-26T15:37:26;98184.88;;;0.25;58.91
35694;BME280;21812;55.536;37.664;2023-02-26T15:39:53;98175.00;;;0.19;59.33
35694;BME280;21812;55.536;37.664;2023-02-26T15:42:20;98177.63;;;0.19;59.13
35694;BME280;21812;55.536;37.664;2023-02-26T15:44:47;98203.41;;;0.32;59.22
35694;BME280;21812;55.536;37.664;2023-02-26T15:47:15;98198.00;;;0.25;59.55
35694;BME280;21812;55.536;37.664;2023-02-26T15:49:45;98209.97;;;0.28;59.96
35694;BME280;21812;55.536;37.664;2023-02-26T15:52:17;98181.84;;;-0.05;60.26
35694;BME280;21812;55.536;37.664;2023-02-26T15:54:49;98227.84;;;0.16;61.01
35694;BME280;21812;55.536;37.664;2023-02-26T15:57:17;98184.91;;;-0.17;61.24
35694;BME280;21812;55.536;37.664;2023-02-26T15:59:46;98217.63;;;-0.04;60.89
35694;BME280;21812;55.536;37.664;2023-02-26T16:02:20;98209.25;;;-0.07;60.87
35694;BME280;21812;55.536;37.664;2023-02-26T16:04:46;98225.81;;;0.02;61.06